Airfield :
LOGIN :

Register | Disclaimer

   EN    FR    IT 

 










Legend :    VFR   Marginal VFR   IFR   Intensive IFR   Very Intensive IFR
Visi :
Ceiling :
>= 8 km
>= 3000ft
5 to 8 km
1000 to 3000 ft
1500m to 5 km
500 to 1000 ft
800 to 1500m
200 to 500 ft
< 800m
< 200 ft
Symbols :   Thunderstorms  Fog  Heavy snow  Heavy precipitations  Wind > 20 kt
SIGMETs :     Misc.  Thunderstorms  Icing  Turbulence  Mountain Waves  Volcanic Ashes







- Airport Elevation : 681 ft
- IATA code : LBA
- Download approach charts


EGNM - Leeds Bradford

CURRENT METAR :
  • 191750Z 13011KT 1400 R14/P1500 RA BR SCT001 BKN002 13/13 Q0997

EXPIRED METARs :
  • 191720Z 08005KT 050V110 0150 R14/0450 -RA FG VV/// 12/12 Q0997
  • 191650Z 07006KT 040V100 0150 R14/0375 -RA FG VV/// 12/12 Q0998
  • 191620Z 07006KT 040V100 0200 R14/0325 -RA FG VV/// 12/12 Q0998
  • 191550Z 07008KT 040V110 0300 R14/0450 -RA FG VV/// 11/11 Q0999
  • 191520Z 07007KT 050V110 1100 R14/P1500 -RA BR SCT001 OVC002 11/11 Q0999

TAF TAF EGNM
Valid from the 19 at 18:00 until the 20 at 18:00 UTC


191704Z 1918/2018 13007KT 0800 FG RA BKN001
BECMG 1918/1921 9999 NSW SCT020
TEMPO 1921/2010 6000 RA BKN006
PROB30 1921/2010 2000 +RA BKN002
BECMG 2008/2011 28010KT
PROB30
TEMPO 2014/2018 6000 -RA BKN008
ATIS : +44 113 250 9696 (x2489)
No reported NOTAMs for that airfield.
1 SIGMET reported for the London FIR (EGTT) :
 
Severe turbulence
EGTT SIGMET 02 VALID 191720/192020 EGRR
EGTT LONDON FIR SEV TURB FCST WI N5210 W00549 - N4946 W00315 - N4909 W00623 - N5100 W00800 - N5210 W00549 SFC/FL060 MOV E 20KT WKN=



MET'MAP, your aeronautical weather chart ! - Copyright ORBIFLY December 2007 - Disclaimer

ORBIFLY MET'MAP TEAM :

Programming & Development : Alexandra Zaïnal
Concept & Development : Baudouin d'Aumeries
Co-Development & Prog : Marc-Olivier Méhu
Technical & hardware support : Manuel Goepfert

Contact : metmap@orbifly.com




SOURCES & CREDITS :

   NOAA